Sergeantsville, New Jersey
Current Conditions -  °F | °C
As of 7:54 PM on Saturday 25 Oct 2014 (Local Time) from KDYL Reporting Station
Overcast Overcast  
Wind Chill: 62°   Ceiling: 6500
Heat Index: 62°   Visibility: 10mi
Dew Point: 44°   Wind: 7mph
Humidity: 52%   Direction: 210°SSW
Pressure: 29.67"   Gusts: NA
Location:  40.45°N, 74.94°W
Report Text: KDYL 252354Z AUTO 21006KT 10SM OVC065 17/07 A2967 RMK AO2 SLP046 T01670067 10194 20167 55008 $
Loading
Personal Weather Stations






























Interactive Weather Map
Tropical Storm Tracking
New forecast layout! Learn more

10-Day Weather Forecast

Advertisements
Track Severe Weather on mobile